createdAt,value
2018-09-18T00:00:58.874Z,100783.79
2018-09-18T00:03:26.317Z,100777.69
2018-09-18T00:05:53.913Z,100781.33
2018-09-18T00:08:21.381Z,100781.40
2018-09-18T00:10:48.867Z,100786.98
2018-09-18T00:13:16.477Z,100797.84
2018-09-18T00:15:43.961Z,100809.41
2018-09-18T00:18:11.627Z,100819.38
2018-09-18T00:20:39.263Z,100822.41
2018-09-18T00:23:06.706Z,100815.73
2018-09-18T00:25:34.965Z,100808.53
2018-09-18T00:28:02.627Z,100815.66
2018-09-18T00:30:30.129Z,100809.02
2018-09-18T00:32:57.667Z,100809.41
2018-09-18T00:35:25.357Z,100809.26
2018-09-18T00:37:52.842Z,100811.84
2018-09-18T00:40:20.259Z,100813.23
2018-09-18T00:42:48.011Z,100816.91
2018-09-18T00:45:15.439Z,100825.41
2018-09-18T00:47:42.862Z,100816.72
2018-09-18T00:50:10.789Z,100829.39
2018-09-18T00:52:38.281Z,100834.56
2018-09-18T00:55:05.800Z,100837.07
2018-09-18T00:57:34.309Z,100846.14
2018-09-18T01:00:01.734Z,100839.81
2018-09-18T01:02:29.216Z,100837.08
2018-09-18T01:04:56.779Z,100839.66
2018-09-18T01:07:24.191Z,100838.98
2018-09-18T01:09:51.708Z,100839.65
2018-09-18T01:12:19.425Z,100840.33
2018-09-18T01:14:46.907Z,100844.67
2018-09-18T01:17:14.368Z,100845.95
2018-09-18T01:19:42.278Z,100852.38
2018-09-18T01:22:09.772Z,100847.91
2018-09-18T01:24:37.276Z,100847.11
2018-09-18T01:27:04.987Z,100849.24
2018-09-18T01:29:32.460Z,100845.05
2018-09-18T01:31:59.907Z,100828.31
2018-09-18T01:34:27.523Z,100844.09
2018-09-18T01:36:55.038Z,100849.67
2018-09-18T01:39:22.500Z,100858.23
2018-09-18T01:41:50.125Z,100862.78
2018-09-18T01:44:17.576Z,100857.16
2018-09-18T01:46:45.129Z,100850.91
2018-09-18T01:49:13.076Z,100848.08
2018-09-18T01:51:40.534Z,100846.22
2018-09-18T01:54:07.937Z,100845.69
2018-09-18T01:56:35.665Z,100837.30
2018-09-18T01:59:03.160Z,100830.16
2018-09-18T02:01:30.611Z,100831.36
2018-09-18T02:03:58.250Z,100827.45
2018-09-18T02:06:25.718Z,100828.53
2018-09-18T02:08:53.124Z,100828.30
2018-09-18T02:11:20.824Z,100834.51
2018-09-18T02:13:48.347Z,100838.17
2018-09-18T02:16:15.801Z,100850.33
2018-09-18T02:18:43.544Z,100852.64
2018-09-18T02:21:11.300Z,100850.13
2018-09-18T02:23:38.700Z,100804.84
2018-09-18T02:26:06.486Z,100860.49
2018-09-18T02:28:33.989Z,100861.02
2018-09-18T02:31:01.443Z,100873.38
2018-09-18T02:33:29.171Z,100875.96
2018-09-18T02:35:56.644Z,100822.39
2018-09-18T02:38:24.124Z,100872.09
2018-09-18T02:40:51.767Z,100873.66
2018-09-18T02:43:19.258Z,100872.27
2018-09-18T02:45:46.747Z,100808.41
2018-09-18T02:48:14.322Z,100870.20
2018-09-18T02:50:41.818Z,100867.16
2018-09-18T02:53:09.296Z,100870.13
2018-09-18T02:55:36.958Z,100869.98
2018-09-18T02:58:04.616Z,100865.80
2018-09-18T03:00:32.009Z,100862.93
2018-09-18T03:02:59.691Z,100868.06
2018-09-18T03:05:27.128Z,100864.80
2018-09-18T03:07:54.567Z,100854.56
2018-09-18T03:10:22.198Z,100853.59
2018-09-18T03:12:49.621Z,100855.37
2018-09-18T03:15:17.118Z,100848.80
2018-09-18T03:17:45.005Z,100845.77
2018-09-18T03:20:12.457Z,100843.11
2018-09-18T03:22:40.000Z,100842.16
2018-09-18T03:25:07.822Z,100838.11
2018-09-18T03:27:35.292Z,100832.27
2018-09-18T03:30:02.746Z,100831.25
2018-09-18T03:32:30.299Z,100824.54
2018-09-18T03:34:57.772Z,100814.72
2018-09-18T03:37:25.267Z,100820.02
2018-09-18T03:39:52.804Z,100822.68
2018-09-18T03:42:20.289Z,100820.41
2018-09-18T03:44:47.714Z,100773.81
2018-09-18T03:47:15.474Z,100825.19
2018-09-18T03:49:42.954Z,100823.48
2018-09-18T03:52:10.407Z,100830.05
2018-09-18T03:54:38.167Z,100829.97
2018-09-18T03:57:05.607Z,100822.39
2018-09-18T03:59:33.080Z,100830.81
2018-09-18T04:02:00.673Z,100830.87
2018-09-18T04:04:28.144Z,100826.77
2018-09-18T04:06:55.648Z,100828.23
2018-09-18T04:09:23.350Z,100749.62
2018-09-18T04:11:50.821Z,100824.84
2018-09-18T04:14:18.252Z,100826.00
2018-09-18T04:16:45.887Z,100826.69
2018-09-18T04:19:13.484Z,100831.85
2018-09-18T04:21:41.829Z,100829.83
2018-09-18T04:24:09.716Z,100824.17
2018-09-18T04:26:39.394Z,100820.72
2018-09-18T04:29:07.395Z,100820.19
2018-09-18T04:31:35.193Z,100817.81
2018-09-18T04:34:02.710Z,100811.86
2018-09-18T04:36:30.128Z,100809.94
2018-09-18T04:38:57.829Z,100809.26
2018-09-18T04:41:25.344Z,100808.23
2018-09-18T04:43:52.890Z,100801.45
2018-09-18T04:46:20.505Z,100800.99
2018-09-18T04:48:48.005Z,100800.84
2018-09-18T04:51:15.452Z,100796.40
2018-09-18T04:53:43.127Z,100799.97
2018-09-18T04:56:10.670Z,100796.48
2018-09-18T04:58:38.127Z,100799.97
2018-09-18T05:01:05.845Z,100791.47
2018-09-18T05:03:33.241Z,100782.63
2018-09-18T05:06:01.178Z,100790.67
2018-09-18T05:08:28.808Z,100784.91
2018-09-18T05:10:56.261Z,100790.52
2018-09-18T05:13:23.715Z,100791.78
2018-09-18T05:15:51.290Z,100787.72
2018-09-18T05:18:18.773Z,100785.47
2018-09-18T05:20:46.244Z,100783.20
2018-09-18T05:23:13.950Z,100788.05
2018-09-18T05:25:41.762Z,100788.44
2018-09-18T05:28:09.201Z,100786.16
2018-09-18T05:30:36.872Z,100783.42
2018-09-18T05:33:04.504Z,100774.55
2018-09-18T05:35:31.956Z,100780.16
2018-09-18T05:37:59.670Z,100777.89
2018-09-18T05:40:27.128Z,100773.86
2018-09-18T05:42:54.525Z,100774.70
2018-09-18T05:45:22.208Z,100780.80
2018-09-18T05:47:49.691Z,100785.59
2018-09-18T05:50:17.135Z,100776.74
2018-09-18T05:52:44.765Z,100770.97
2018-09-18T05:55:12.343Z,100777.53
2018-09-18T05:57:39.754Z,100777.53
2018-09-18T06:00:07.413Z,100782.36
2018-09-18T06:02:34.891Z,100787.22
2018-09-18T06:05:02.326Z,100788.93
2018-09-18T06:07:30.048Z,100787.52
2018-09-18T06:09:57.577Z,100791.92
2018-09-18T06:12:25.089Z,100788.78
2018-09-18T06:14:52.826Z,100787.86
2018-09-18T06:17:20.306Z,100794.09
2018-09-18T06:19:47.787Z,100788.55
2018-09-18T06:22:15.408Z,100788.47
2018-09-18T06:24:42.855Z,100783.45
2018-09-18T06:27:10.524Z,100780.58
2018-09-18T06:29:38.226Z,100777.76
2018-09-18T06:32:05.618Z,100779.34
2018-09-18T06:34:33.078Z,100771.22
2018-09-18T06:37:00.750Z,100763.92
2018-09-18T06:39:28.255Z,100761.52
2018-09-18T06:41:55.718Z,100764.89
2018-09-18T06:44:23.421Z,100771.30
2018-09-18T06:46:50.874Z,100762.67
2018-09-18T06:49:18.376Z,100760.73
2018-09-18T06:51:46.036Z,100757.83
2018-09-18T06:54:13.471Z,100755.09
2018-09-18T06:56:40.927Z,100756.55
2018-09-18T06:59:08.642Z,100759.05
2018-09-18T07:01:36.126Z,100757.27
2018-09-18T07:04:03.591Z,100764.33
2018-09-18T07:06:31.137Z,100762.34
2018-09-18T07:08:58.596Z,100768.38
2018-09-18T07:11:26.012Z,100774.32
2018-09-18T07:13:53.721Z,100767.02
2018-09-18T07:16:21.144Z,100757.86
2018-09-18T07:18:48.674Z,100752.37
2018-09-18T07:21:16.383Z,100751.97
2018-09-18T07:23:43.834Z,100751.63
2018-09-18T07:26:11.302Z,100747.39
2018-09-18T07:28:39.084Z,100744.94
2018-09-18T07:31:06.590Z,100742.43
2018-09-18T07:33:34.027Z,100740.44
2018-09-18T07:36:01.829Z,100730.03
2018-09-18T07:38:29.290Z,100722.70
2018-09-18T07:40:56.792Z,100724.19
2018-09-18T07:43:24.357Z,100727.38
2018-09-18T07:45:51.803Z,100725.16
2018-09-18T07:48:19.209Z,100720.26
2018-09-18T07:50:47.052Z,100728.69
2018-09-18T07:53:14.520Z,100725.49
2018-09-18T07:55:41.959Z,100726.75
2018-09-18T07:58:09.603Z,100726.72
2018-09-18T08:00:37.064Z,100726.27
2018-09-18T08:03:04.578Z,100718.59
2018-09-18T08:05:32.356Z,100712.31
2018-09-18T08:07:59.813Z,100714.52
2018-09-18T08:10:27.332Z,100715.52
2018-09-18T08:12:55.051Z,100714.66
2018-09-18T08:15:22.559Z,100715.24
2018-09-18T08:17:49.986Z,100706.50
2018-09-18T08:20:17.666Z,100702.40
2018-09-18T08:22:45.131Z,100689.83
2018-09-18T08:25:12.621Z,100692.33
2018-09-18T08:27:40.342Z,100690.03
2018-09-18T08:30:08.191Z,100693.39
2018-09-18T08:32:35.735Z,100688.34
2018-09-18T08:35:03.499Z,100683.64
2018-09-18T08:37:30.927Z,100682.09
2018-09-18T08:39:58.481Z,100685.50
2018-09-18T08:42:26.171Z,100675.34
2018-09-18T08:44:53.648Z,100678.68
2018-09-18T08:47:21.089Z,100674.06
2018-09-18T08:49:48.745Z,100674.02
2018-09-18T08:52:16.314Z,100676.84
2018-09-18T08:54:43.772Z,100681.83
2018-09-18T08:57:11.442Z,100678.06
2018-09-18T08:59:38.985Z,100671.61
2018-09-18T09:02:06.577Z,100675.09
2018-09-18T09:04:34.224Z,100670.92
2018-09-18T09:07:01.683Z,100672.16
2018-09-18T09:09:29.232Z,100665.80
2018-09-18T09:11:56.906Z,100666.20
2018-09-18T09:14:24.418Z,100667.51
2018-09-18T09:16:51.832Z,100663.89
2018-09-18T09:19:19.517Z,100669.67
2018-09-18T09:21:47.091Z,100656.61
2018-09-18T09:24:14.519Z,100661.05
2018-09-18T09:26:42.203Z,100662.31
2018-09-18T09:29:09.615Z,100657.49
2018-09-18T09:31:37.496Z,100656.44
2018-09-18T09:34:05.162Z,100656.73
2018-09-18T09:36:32.644Z,100651.80
2018-09-18T09:39:00.093Z,100652.58
2018-09-18T09:41:27.852Z,100651.90
2018-09-18T09:43:55.357Z,100646.95
2018-09-18T09:46:22.809Z,100648.97
2018-09-18T09:48:50.558Z,100651.08
2018-09-18T09:51:18.188Z,100645.14
2018-09-18T09:53:45.634Z,100633.95
2018-09-18T09:56:13.373Z,100627.41
2018-09-18T09:58:41.034Z,100627.53
2018-09-18T10:01:13.986Z,100617.31
2018-09-18T10:03:41.558Z,100614.40
2018-09-18T10:06:08.982Z,100615.38
2018-09-18T10:08:36.449Z,100615.98
2018-09-18T10:11:04.220Z,100612.11
2018-09-18T10:13:31.737Z,100615.42
2018-09-18T10:15:59.172Z,100619.56
2018-09-18T10:18:26.692Z,100630.42
2018-09-18T10:20:54.190Z,100613.13
2018-09-18T10:23:21.661Z,100621.17
2018-09-18T10:25:49.379Z,100607.03
2018-09-18T10:28:16.879Z,100599.47
2018-09-18T10:30:44.335Z,100599.74
2018-09-18T10:33:12.239Z,100607.67
2018-09-18T10:35:39.675Z,100600.73
2018-09-18T10:38:07.093Z,100594.27
2018-09-18T10:40:34.645Z,100593.16
2018-09-18T10:43:02.174Z,100580.94
2018-09-18T10:45:29.681Z,100571.05
2018-09-18T10:47:57.461Z,100576.55
2018-09-18T10:50:25.043Z,100575.21
2018-09-18T10:52:52.525Z,100576.20
2018-09-18T10:55:20.121Z,100576.20
2018-09-18T10:57:47.873Z,100574.59
2018-09-18T11:00:15.368Z,100569.98
2018-09-18T11:02:43.142Z,100570.45
2018-09-18T11:05:10.652Z,100553.25
2018-09-18T11:07:38.244Z,100549.34
2018-09-18T11:10:06.061Z,100546.75
2018-09-18T11:12:33.512Z,100584.75
2018-09-18T11:15:01.044Z,100584.26
2018-09-18T11:17:28.693Z,100583.25
2018-09-18T11:19:56.154Z,100573.73
2018-09-18T11:22:23.807Z,100572.23
2018-09-18T11:24:51.416Z,100566.13
2018-09-18T11:27:18.905Z,100573.81
2018-09-18T11:29:46.391Z,100574.05
2018-09-18T11:32:14.148Z,100564.38
2018-09-18T11:34:41.778Z,100563.04
2018-09-18T11:37:09.228Z,100555.55
2018-09-18T11:39:36.866Z,100555.20
2018-09-18T11:42:04.328Z,100554.20
2018-09-18T11:44:31.804Z,100547.52
2018-09-18T11:46:59.431Z,100553.76
2018-09-18T11:49:26.940Z,100554.11
2018-09-18T11:51:54.432Z,100548.51
2018-09-18T11:54:22.124Z,100550.69
2018-09-18T11:56:49.578Z,100545.18
2018-09-18T11:59:17.036Z,100541.63
2018-09-18T12:01:44.806Z,100550.53
2018-09-18T12:04:12.330Z,100555.30
2018-09-18T12:06:39.792Z,100562.88
2018-09-18T12:09:08.558Z,100564.33
2018-09-18T12:11:36.019Z,100558.78
2018-09-18T12:14:03.447Z,100554.09
2018-09-18T12:16:31.309Z,100549.55
2018-09-18T12:18:58.750Z,100545.37
2018-09-18T12:21:26.195Z,100543.55
2018-09-18T12:23:53.944Z,100548.92
2018-09-18T12:26:21.364Z,100540.34
2018-09-18T12:28:48.845Z,100537.66
2018-09-18T12:31:16.498Z,100539.38
2018-09-18T12:33:43.977Z,100533.22
2018-09-18T12:36:11.565Z,100532.64
2018-09-18T12:38:39.119Z,100532.03
2018-09-18T12:41:06.615Z,100533.33
2018-09-18T12:43:34.057Z,100532.54
2018-09-18T12:46:01.664Z,100530.05
2018-09-18T12:48:29.145Z,100537.86
2018-09-18T12:50:56.659Z,100536.30
2018-09-18T12:53:24.247Z,100535.70
2018-09-18T12:55:51.690Z,100518.73
2018-09-18T12:58:19.199Z,100525.98
2018-09-18T13:00:46.974Z,100533.33
2018-09-18T13:03:14.412Z,100530.55
2018-09-18T13:05:41.852Z,100525.91
2018-09-18T13:08:09.584Z,100515.17
2018-09-18T13:10:36.985Z,100513.48
2018-09-18T13:13:04.644Z,100496.73
2018-09-18T13:15:32.320Z,100501.25
2018-09-18T13:17:59.982Z,100495.88
2018-09-18T13:20:27.493Z,100495.05
2018-09-18T13:22:55.132Z,100500.73
2018-09-18T13:25:22.655Z,100497.70
2018-09-18T13:27:50.173Z,100488.94
2018-09-18T13:30:17.773Z,100483.95
2018-09-18T13:32:45.442Z,100493.75
2018-09-18T13:35:12.790Z,100486.42
2018-09-18T13:37:40.747Z,100493.27
2018-09-18T13:40:08.392Z,100488.89
2018-09-18T13:42:35.797Z,100472.63
2018-09-18T13:45:03.666Z,100465.17
2018-09-18T13:47:31.105Z,100460.15
2018-09-18T13:49:58.566Z,100464.79
2018-09-18T13:52:26.238Z,100465.05
2018-09-18T13:54:53.731Z,100460.54
2018-09-18T13:57:21.193Z,100460.76
2018-09-18T13:59:48.959Z,100462.23
2018-09-18T14:02:16.522Z,100469.21
2018-09-18T14:04:44.039Z,100467.52
2018-09-18T14:07:11.675Z,100466.30
2018-09-18T14:09:39.111Z,100475.70
2018-09-18T14:12:06.648Z,100482.08
2018-09-18T14:14:34.271Z,100476.22
2018-09-18T14:17:01.747Z,100466.11
2018-09-18T14:19:29.189Z,100471.75
2018-09-18T14:21:56.787Z,100468.22
2018-09-18T14:24:24.224Z,100469.12
2018-09-18T14:26:51.789Z,100473.27
2018-09-18T14:29:19.381Z,100468.97
2018-09-18T14:31:46.841Z,100471.08
2018-09-18T14:34:14.321Z,100471.33
2018-09-18T14:36:48.661Z,100466.69
2018-09-18T14:39:16.265Z,100464.73
2018-09-18T14:41:43.730Z,100457.31
2018-09-18T14:44:11.369Z,100457.17
2018-09-18T14:46:38.950Z,100461.58
2018-09-18T14:49:06.383Z,100451.20
2018-09-18T14:51:33.977Z,100446.57
2018-09-18T14:54:01.464Z,100433.05
2018-09-18T14:56:28.949Z,100426.21
2018-09-18T14:58:56.549Z,100425.61
2018-09-18T15:01:24.003Z,100434.48
2018-09-18T15:03:51.474Z,100432.90
2018-09-18T15:06:19.082Z,100429.73
2018-09-18T15:08:47.205Z,100426.19
2018-09-18T15:11:14.752Z,100441.21
2018-09-18T15:13:42.275Z,100434.50
2018-09-18T15:16:09.712Z,100432.77
2018-09-18T15:18:37.156Z,100439.98
2018-09-18T15:21:04.784Z,100443.30
2018-09-18T15:23:32.220Z,100440.62
2018-09-18T15:25:59.667Z,100446.94
2018-09-18T15:28:27.351Z,100432.69
2018-09-18T15:30:54.829Z,100429.63
2018-09-18T15:33:22.345Z,100421.59
2018-09-18T15:35:50.054Z,100419.38
2018-09-18T15:38:17.526Z,100415.98
2018-09-18T15:40:45.226Z,100345.41
2018-09-18T15:43:12.883Z,100417.20
2018-09-18T15:45:40.367Z,100410.88
2018-09-18T15:48:07.822Z,100408.19
2018-09-18T15:50:35.601Z,100412.21
2018-09-18T15:53:03.016Z,100421.36
2018-09-18T15:55:30.465Z,100415.12
2018-09-18T15:57:58.221Z,100411.23
2018-09-18T16:00:25.609Z,100414.77
2018-09-18T16:02:53.021Z,100415.02
2018-09-18T16:05:20.676Z,100402.56
2018-09-18T16:07:48.145Z,100397.70
2018-09-18T16:10:15.607Z,100408.91
2018-09-18T16:12:43.373Z,100399.65
2018-09-18T16:15:10.892Z,100404.02
2018-09-18T16:17:38.340Z,100413.92
2018-09-18T16:20:06.035Z,100423.06
2018-09-18T16:22:33.616Z,100422.44
2018-09-18T16:25:01.139Z,100425.24
2018-09-18T16:27:28.702Z,100423.30
2018-09-18T16:29:56.100Z,100414.17
2018-09-18T16:32:23.561Z,100420.02
2018-09-18T16:34:51.293Z,100430.75
2018-09-18T16:37:18.827Z,100431.11
2018-09-18T16:39:46.261Z,100431.38
2018-09-18T16:42:14.060Z,100434.30
2018-09-18T16:44:41.514Z,100432.20
2018-09-18T16:47:08.994Z,100431.48
2018-09-18T16:49:36.698Z,100438.08
2018-09-18T16:52:04.245Z,100436.22
2018-09-18T16:54:32.334Z,100436.61
2018-09-18T16:56:59.912Z,100441.59
2018-09-18T16:59:27.346Z,100451.84
2018-09-18T17:01:54.796Z,100452.09
2018-09-18T17:04:22.471Z,100445.87
2018-09-18T17:06:50.027Z,100441.59
2018-09-18T17:09:18.317Z,100443.69
2018-09-18T17:11:46.052Z,100443.17
2018-09-18T17:14:13.461Z,100442.34
2018-09-18T17:16:40.965Z,100437.81
2018-09-18T17:19:08.608Z,100434.41
2018-09-18T17:21:36.064Z,100426.98
2018-09-18T17:24:03.525Z,100420.03
2018-09-18T17:26:32.082Z,100422.08
2018-09-18T17:28:59.659Z,100418.30
2018-09-18T17:31:27.106Z,100427.93
2018-09-18T17:33:54.795Z,100425.25
2018-09-18T17:36:22.309Z,100426.98
2018-09-18T17:38:49.825Z,100428.80
2018-09-18T17:41:17.448Z,100426.73
2018-09-18T17:44:47.942Z,100419.91
2018-09-18T17:47:15.524Z,100422.59
2018-09-18T17:49:43.056Z,100417.10
2018-09-18T17:52:10.488Z,100412.56
2018-09-18T17:54:38.085Z,100415.88
2018-09-18T17:57:06.444Z,100407.33
2018-09-18T17:59:35.939Z,100405.51
2018-09-18T18:02:03.505Z,100415.38
2018-09-18T18:04:30.951Z,100426.11
2018-09-18T18:06:58.488Z,100426.84
2018-09-18T18:09:26.096Z,100430.88
2018-09-18T18:11:53.768Z,100440.37
2018-09-18T18:14:21.666Z,100443.54
2018-09-18T18:16:49.399Z,100449.77
2018-09-18T18:19:16.842Z,100443.66
2018-09-18T18:21:44.318Z,100447.45
2018-09-18T18:24:11.897Z,100456.22
2018-09-18T18:26:39.389Z,100460.75
2018-09-18T18:29:06.852Z,100451.72
2018-09-18T18:31:34.465Z,100455.23
2018-09-18T18:34:01.962Z,100440.61
2018-09-18T18:36:29.512Z,100438.44
2018-09-18T18:38:57.123Z,100438.05
2018-09-18T18:41:24.550Z,100436.70
2018-09-18T18:43:52.025Z,100437.22
2018-09-18T18:46:19.684Z,100439.03
2018-09-18T18:48:47.162Z,100437.34
2018-09-18T18:51:14.607Z,100443.66
2018-09-18T18:53:42.256Z,100444.25
2018-09-18T18:56:09.684Z,100443.42
2018-09-18T18:58:37.154Z,100447.17
2018-09-18T19:01:04.763Z,100454.63
2018-09-18T19:03:32.248Z,100458.77
2018-09-18T19:05:59.691Z,100469.23
2018-09-18T19:08:27.285Z,100473.81
2018-09-18T19:10:54.798Z,100470.27
2018-09-18T19:13:22.297Z,100462.70
2018-09-18T19:15:49.974Z,100466.09
2018-09-18T19:18:17.505Z,100466.44
2018-09-18T19:20:44.929Z,100468.76
2018-09-18T19:23:12.658Z,100465.09
2018-09-18T19:25:40.129Z,100462.19
2018-09-18T19:28:07.607Z,100446.84
2018-09-18T19:30:35.144Z,100435.50
2018-09-18T19:33:02.590Z,100428.80
2018-09-18T19:35:30.001Z,100423.44
2018-09-18T19:37:57.448Z,100416.73
2018-09-18T19:40:24.924Z,100420.41
2018-09-18T19:42:52.439Z,100433.06
2018-09-18T19:45:20.099Z,100431.72
2018-09-18T19:47:47.671Z,100419.54
2018-09-18T19:50:16.512Z,100416.63
2018-09-18T19:52:45.044Z,100427.70
2018-09-18T19:55:12.937Z,100425.61
2018-09-18T19:57:40.438Z,100414.66
2018-09-18T20:00:08.547Z,100399.29
2018-09-18T20:02:36.007Z,100387.73
2018-09-18T20:05:03.479Z,100391.02
2018-09-18T20:07:31.425Z,100406.73
2018-09-18T20:09:58.945Z,100403.55
2018-09-18T20:12:26.417Z,100398.06
2018-09-18T20:14:54.148Z,100395.27
2018-09-18T20:17:21.571Z,100383.33
2018-09-18T20:19:49.036Z,100385.66
2018-09-18T20:22:16.639Z,100388.34
2018-09-18T20:24:44.108Z,100373.24
2018-09-18T20:27:11.598Z,100369.46
2018-09-18T20:29:39.325Z,100369.22
2018-09-18T20:32:06.723Z,100385.30
2018-09-18T20:34:34.194Z,100394.80
2018-09-18T20:37:01.805Z,100393.69
2018-09-18T20:39:29.213Z,100394.48
2018-09-18T20:41:56.701Z,100384.00
2018-09-18T20:44:24.324Z,100377.19
2018-09-18T20:46:51.777Z,100367.22
2018-09-18T20:49:19.267Z,100355.87
2018-09-18T20:51:46.903Z,100355.05
2018-09-18T20:54:14.384Z,100354.66
2018-09-18T20:56:41.872Z,100352.09
2018-09-18T20:59:09.402Z,100352.21
2018-09-18T21:01:36.871Z,100350.05
2018-09-18T21:04:04.358Z,100360.75
2018-09-18T21:06:31.932Z,100349.30
2018-09-18T21:08:59.416Z,100337.12
2018-09-18T21:11:26.899Z,100348.78
2018-09-18T21:13:54.527Z,100337.44
2018-09-18T21:16:21.993Z,100337.44
2018-09-18T21:18:49.511Z,100329.17
2018-09-18T21:21:17.022Z,100326.84
2018-09-18T21:23:44.497Z,100322.36
2018-09-18T21:26:14.075Z,100334.41
2018-09-18T21:28:41.640Z,100328.55
2018-09-18T21:31:09.232Z,100343.77
2018-09-18T21:33:36.745Z,100336.34
2018-09-18T21:36:04.403Z,100333.30
2018-09-18T21:38:32.127Z,100331.57
2018-09-18T21:41:00.157Z,100335.70
2018-09-18T21:43:28.330Z,100343.85
2018-09-18T21:45:55.813Z,100336.45
2018-09-18T21:48:23.267Z,100332.16
2018-09-18T21:50:51.198Z,100332.51
2018-09-18T21:53:18.734Z,100335.41
2018-09-18T21:55:46.374Z,100320.28
2018-09-18T21:58:14.078Z,100358.04
2018-09-18T22:00:42.057Z,100358.63
2018-09-18T22:03:09.710Z,100358.38
2018-09-18T22:05:37.578Z,100354.02
2018-09-18T22:08:05.180Z,100349.25
2018-09-18T22:10:32.814Z,100343.50
2018-09-18T22:13:01.129Z,100336.09
2018-09-18T22:15:29.297Z,100332.55
2018-09-18T22:17:56.954Z,100329.64
2018-09-18T22:20:24.819Z,100333.38
2018-09-18T22:22:52.405Z,100337.89
2018-09-18T22:25:20.783Z,100340.57
2018-09-18T22:27:48.745Z,100334.94
2018-09-18T22:30:16.418Z,100338.13
2018-09-18T22:32:44.027Z,100342.61
2018-09-18T22:35:11.806Z,100330.56
2018-09-18T22:37:39.384Z,100319.98
2018-09-18T22:40:07.039Z,100331.23
2018-09-18T22:42:34.817Z,100339.48
2018-09-18T22:45:02.400Z,100347.73
2018-09-18T22:47:30.022Z,100343.55
2018-09-18T22:49:57.640Z,100339.29
2018-09-18T22:52:25.293Z,100329.45
2018-09-18T22:54:52.728Z,100317.42
2018-09-18T22:57:20.319Z,100301.95
2018-09-18T22:59:47.830Z,100292.71
2018-09-18T23:02:15.245Z,100295.50
2018-09-18T23:04:42.857Z,100301.94
2018-09-18T23:07:10.337Z,100282.36
2018-09-18T23:09:37.789Z,100258.41
2018-09-18T23:12:05.418Z,100273.23
2018-09-18T23:14:32.914Z,100284.90
2018-09-18T23:17:00.339Z,100276.48
2018-09-18T23:19:28.235Z,100268.97
2018-09-18T23:21:55.669Z,100265.44
2018-09-18T23:24:23.158Z,100266.77
2018-09-18T23:26:50.848Z,100260.08
2018-09-18T23:29:18.237Z,100262.98
2018-09-18T23:31:45.679Z,100259.45
2018-09-18T23:34:13.414Z,100237.70
2018-09-18T23:36:40.875Z,100237.92
2018-09-18T23:39:08.825Z,100248.62
2018-09-18T23:41:36.556Z,100244.14
2018-09-18T23:44:03.980Z,100230.02
2018-09-18T23:46:31.439Z,100228.33
2018-09-18T23:48:59.045Z,100244.95
2018-09-18T23:51:26.681Z,100253.48
2018-09-18T23:53:54.674Z,100262.04
2018-09-18T23:56:22.397Z,100254.41
2018-09-18T23:58:49.835Z,100242.83
